createdAt,value
2023-01-18T00:01:21.905Z,181.60
2023-01-18T00:03:49.919Z,137.30
2023-01-18T00:06:18.170Z,155.30
2023-01-18T00:08:46.102Z,178.70
2023-01-18T00:11:17.203Z,186.90
2023-01-18T00:13:45.757Z,188.30
2023-01-18T00:16:20.091Z,199.60
2023-01-18T00:18:56.964Z,178.70
2023-01-18T00:21:27.737Z,165.10
2023-01-18T00:23:56.860Z,173.70
2023-01-18T00:26:24.872Z,172.10
2023-01-18T00:28:56.359Z,146.50
2023-01-18T00:31:24.261Z,170.10
2023-01-18T00:33:52.283Z,163.20
2023-01-18T00:36:20.325Z,163.70
2023-01-18T00:38:51.788Z,196.50
2023-01-18T00:41:21.684Z,163.00
2023-01-18T00:43:50.353Z,154.60
2023-01-18T00:46:24.285Z,148.90
2023-01-18T00:48:52.577Z,152.20
2023-01-18T00:51:23.687Z,151.10
2023-01-18T00:53:52.080Z,145.90
2023-01-18T00:56:22.635Z,161.00
2023-01-18T00:58:51.014Z,131.40
2023-01-18T01:01:19.088Z,137.30
2023-01-18T01:04:06.014Z,127.50
2023-01-18T01:06:44.672Z,152.40
2023-01-18T01:09:18.267Z,152.50
2023-01-18T01:12:06.449Z,124.60
2023-01-18T01:14:55.628Z,129.70
2023-01-18T01:17:42.108Z,127.80
2023-01-18T01:20:29.673Z,107.90
2023-01-18T01:23:16.270Z,112.20
2023-01-18T01:26:02.830Z,123.80
2023-01-18T01:28:30.732Z,134.20
2023-01-18T01:31:00.898Z,148.60
2023-01-18T01:33:30.613Z,141.80
2023-01-18T01:36:01.537Z,137.80
2023-01-18T01:38:30.669Z,130.50
2023-01-18T01:41:01.854Z,149.50
2023-01-18T01:43:51.322Z,123.00
2023-01-18T01:46:47.154Z,123.70
2023-01-18T01:49:19.889Z,116.90
2023-01-18T01:51:52.893Z,116.40
2023-01-18T01:54:28.940Z,123.90
2023-01-18T01:57:20.077Z,108.20
2023-01-18T01:59:59.535Z,96.60
2023-01-18T02:02:29.540Z,102.40
2023-01-18T02:04:59.639Z,99.20
2023-01-18T02:07:28.954Z,114.20
2023-01-18T02:09:59.124Z,116.30
2023-01-18T02:12:29.332Z,109.90
2023-01-18T02:14:59.546Z,116.70
2023-01-18T02:18:05.827Z,112.10
2023-01-18T02:20:52.695Z,106.90
2023-01-18T02:23:30.702Z,105.40
2023-01-18T02:26:33.867Z,100.70
2023-01-18T02:29:13.986Z,90.70
2023-01-18T02:32:08.843Z,88.20
2023-01-18T02:34:52.173Z,100.50
2023-01-18T02:37:26.016Z,101.60
2023-01-18T02:40:14.145Z,105.20
2023-01-18T02:43:03.672Z,100.80
2023-01-18T02:45:57.996Z,99.90
2023-01-18T02:48:33.321Z,107.70
2023-01-18T02:51:01.151Z,143.30
2023-01-18T02:53:30.272Z,126.50
2023-01-18T02:56:11.423Z,109.40
2023-01-18T02:58:48.880Z,107.00
2023-01-18T03:01:34.173Z,103.30
2023-01-18T03:04:14.030Z,141.70
2023-01-18T03:06:48.490Z,142.70
2023-01-18T03:09:18.634Z,105.80
2023-01-18T03:11:57.826Z,104.80
2023-01-18T03:15:13.083Z,97.30
2023-01-18T03:17:59.513Z,108.70
2023-01-18T03:20:33.055Z,99.30
2023-01-18T03:23:32.363Z,98.50
2023-01-18T03:26:03.386Z,96.30
2023-01-18T03:28:55.348Z,92.00
2023-01-18T03:32:01.260Z,89.60
2023-01-18T03:34:38.657Z,80.80
2023-01-18T03:37:19.441Z,79.90
2023-01-18T03:39:53.702Z,76.10
2023-01-18T03:42:29.421Z,80.20
2023-01-18T03:45:08.769Z,82.00
2023-01-18T03:47:37.536Z,86.40
2023-01-18T03:50:05.859Z,89.40
2023-01-18T03:52:45.209Z,76.50
2023-01-18T03:55:28.991Z,75.80
2023-01-18T03:58:06.518Z,86.10
2023-01-18T04:00:34.359Z,75.10
2023-01-18T04:03:02.669Z,87.00
2023-01-18T04:05:30.841Z,73.60
2023-01-18T04:07:58.689Z,81.40
2023-01-18T04:10:26.849Z,76.10
2023-01-18T04:12:54.821Z,86.20
2023-01-18T04:15:22.895Z,74.70
2023-01-18T04:17:53.474Z,82.20
2023-01-18T04:20:22.287Z,75.30
2023-01-18T04:22:54.662Z,80.40
2023-01-18T04:25:22.615Z,76.00
2023-01-18T04:27:50.628Z,77.90
2023-01-18T04:30:18.772Z,88.40
2023-01-18T04:32:46.722Z,95.50
2023-01-18T04:35:15.083Z,75.60
2023-01-18T04:37:42.927Z,74.90
2023-01-18T04:40:11.533Z,86.00
2023-01-18T04:42:39.580Z,81.70
2023-01-18T04:45:08.123Z,80.40
2023-01-18T04:47:35.953Z,69.80
2023-01-18T04:50:04.107Z,73.30
2023-01-18T04:52:33.424Z,64.60
2023-01-18T04:55:01.418Z,70.30
2023-01-18T04:57:29.351Z,72.00
2023-01-18T04:59:57.283Z,78.60
2023-01-18T05:02:25.195Z,84.40
2023-01-18T05:04:53.288Z,84.20
2023-01-18T05:07:25.322Z,76.40
2023-01-18T05:09:53.283Z,73.80
2023-01-18T05:12:21.209Z,70.40
2023-01-18T05:14:49.230Z,81.10
2023-01-18T05:17:17.039Z,81.40
2023-01-18T05:19:46.829Z,92.40
2023-01-18T05:22:14.634Z,90.30
2023-01-18T05:24:42.548Z,110.40
2023-01-18T05:27:11.949Z,101.00
2023-01-18T05:29:39.833Z,76.60
2023-01-18T05:32:07.824Z,64.80
2023-01-18T05:34:35.803Z,58.10
2023-01-18T05:37:04.776Z,60.80
2023-01-18T05:39:32.762Z,65.80
2023-01-18T05:42:00.553Z,64.70
2023-01-18T05:44:28.970Z,61.70
2023-01-18T05:46:57.961Z,56.90
2023-01-18T05:49:25.932Z,69.70
2023-01-18T05:51:53.891Z,62.80
2023-01-18T05:54:21.928Z,106.10
2023-01-18T05:56:49.767Z,385.70
2023-01-18T05:59:17.733Z,382.70
2023-01-18T06:01:45.605Z,333.00
2023-01-18T06:04:13.699Z,436.10
2023-01-18T06:06:41.791Z,208.90
2023-01-18T06:09:09.665Z,140.20
2023-01-18T06:11:37.498Z,238.90
2023-01-18T06:14:05.541Z,240.60
2023-01-18T06:16:33.390Z,305.50
2023-01-18T06:19:01.452Z,345.90
2023-01-18T06:21:29.307Z,240.10
2023-01-18T06:23:57.254Z,142.30
2023-01-18T06:26:25.216Z,152.00
2023-01-18T06:28:53.634Z,129.10
2023-01-18T06:31:21.495Z,110.80
2023-01-18T06:33:49.677Z,115.40
2023-01-18T06:36:17.481Z,340.90
2023-01-18T06:38:45.394Z,386.70
2023-01-18T06:41:13.408Z,220.30
2023-01-18T06:43:41.714Z,211.20
2023-01-18T06:46:11.625Z,70.10
2023-01-18T06:48:39.581Z,48.30
2023-01-18T06:51:07.641Z,48.70
2023-01-18T06:53:37.695Z,53.10
2023-01-18T06:56:10.456Z,56.70
2023-01-18T06:58:38.470Z,51.30
2023-01-18T07:01:06.970Z,53.10
2023-01-18T07:03:35.200Z,32.70
2023-01-18T07:06:04.462Z,37.10
2023-01-18T07:08:32.686Z,36.80
2023-01-18T07:11:08.240Z,32.30
2023-01-18T07:13:40.004Z,35.80
2023-01-18T07:16:09.364Z,27.10
2023-01-18T07:18:37.259Z,27.10
2023-01-18T07:21:10.204Z,29.90
2023-01-18T07:23:39.996Z,29.40
2023-01-18T07:26:17.140Z,33.50
2023-01-18T07:28:46.418Z,34.40
2023-01-18T07:31:15.597Z,29.20
2023-01-18T07:33:43.799Z,30.00
2023-01-18T07:36:11.958Z,30.90
2023-01-18T07:38:40.352Z,32.20
2023-01-18T07:41:14.511Z,34.30
2023-01-18T07:43:44.920Z,34.80
2023-01-18T07:46:16.981Z,36.20
2023-01-18T07:48:45.028Z,28.20
2023-01-18T07:51:13.374Z,28.80
2023-01-18T07:53:41.905Z,32.80
2023-01-18T07:56:13.821Z,30.00
2023-01-18T07:58:42.442Z,26.30
2023-01-18T08:01:16.166Z,33.30
2023-01-18T08:03:45.690Z,32.00
2023-01-18T08:06:13.925Z,31.50
2023-01-18T08:08:42.168Z,29.50
2023-01-18T08:11:11.302Z,31.50
2023-01-18T08:13:39.474Z,28.20
2023-01-18T08:16:09.541Z,32.00
2023-01-18T08:18:37.665Z,29.00
2023-01-18T08:21:11.050Z,28.70
2023-01-18T08:23:39.309Z,29.30
2023-01-18T08:26:09.099Z,28.20
2023-01-18T08:28:37.562Z,30.10
2023-01-18T08:31:07.503Z,29.30
2023-01-18T08:33:37.936Z,26.40
2023-01-18T08:36:10.548Z,31.00
2023-01-18T08:38:39.591Z,28.70
2023-01-18T08:41:07.679Z,34.20
2023-01-18T08:43:35.908Z,32.30
2023-01-18T08:46:04.156Z,28.30
2023-01-18T08:48:32.263Z,33.10
2023-01-18T08:51:02.241Z,34.70
2023-01-18T08:53:31.473Z,33.20
2023-01-18T08:55:59.273Z,27.00
2023-01-18T08:58:27.338Z,26.00
2023-01-18T09:00:55.145Z,28.00
2023-01-18T09:03:23.192Z,30.50
2023-01-18T09:05:51.593Z,25.90
2023-01-18T09:08:19.514Z,26.20
2023-01-18T09:10:47.502Z,30.60
2023-01-18T09:13:15.476Z,28.10
2023-01-18T09:15:43.687Z,35.90
2023-01-18T09:18:11.644Z,27.50
2023-01-18T09:20:39.763Z,34.10
2023-01-18T09:23:09.523Z,34.10
2023-01-18T09:25:37.815Z,31.80
2023-01-18T09:28:05.846Z,33.10
2023-01-18T09:30:34.084Z,30.50
2023-01-18T09:33:03.740Z,29.40
2023-01-18T09:35:33.101Z,31.90
2023-01-18T09:38:01.067Z,27.40
2023-01-18T09:40:45.005Z,30.70
2023-01-18T09:43:24.579Z,35.10
2023-01-18T09:45:53.587Z,36.70
2023-01-18T09:48:40.897Z,37.30
2023-01-18T09:51:20.515Z,34.70
2023-01-18T09:54:15.790Z,40.40
2023-01-18T09:57:04.222Z,39.10
2023-01-18T09:59:42.171Z,35.10
2023-01-18T10:02:24.375Z,38.20
2023-01-18T10:04:56.532Z,41.50
2023-01-18T10:07:27.337Z,45.90
2023-01-18T10:09:58.638Z,40.50
2023-01-18T10:12:32.533Z,45.20
2023-01-18T10:15:10.747Z,40.60
2023-01-18T10:17:41.952Z,39.40
2023-01-18T10:20:35.744Z,40.60
2023-01-18T10:23:13.677Z,40.00
2023-01-18T10:25:55.843Z,46.00
2023-01-18T10:29:00.946Z,44.00
2023-01-18T10:34:34.673Z,44.20
2023-01-18T10:37:38.965Z,46.10
2023-01-18T10:40:10.280Z,38.80
2023-01-18T10:42:48.481Z,41.30
2023-01-18T10:45:22.881Z,45.50
2023-01-18T10:47:53.152Z,43.30
2023-01-18T10:50:34.373Z,54.50
2023-01-18T10:53:28.224Z,45.30
2023-01-18T10:56:06.854Z,39.40
2023-01-18T10:59:00.884Z,46.00
2023-01-18T11:01:30.454Z,43.90
2023-01-18T11:04:06.302Z,42.70
2023-01-18T11:06:53.692Z,44.00
2023-01-18T11:09:48.802Z,41.60
2023-01-18T11:12:42.309Z,40.30
2023-01-18T11:15:13.342Z,41.30
2023-01-18T11:17:50.413Z,41.30
2023-01-18T11:20:44.605Z,39.20
2023-01-18T11:23:37.655Z,41.90
2023-01-18T11:26:19.208Z,38.90
2023-01-18T11:29:12.552Z,41.80
2023-01-18T11:31:47.491Z,38.30
2023-01-18T11:34:34.309Z,30.20
2023-01-18T11:37:02.786Z,49.40
2023-01-18T11:39:33.000Z,46.00
2023-01-18T11:42:11.550Z,45.40
2023-01-18T11:44:54.566Z,45.60
2023-01-18T11:47:32.403Z,37.30
2023-01-18T11:50:23.971Z,37.80
2023-01-18T11:52:56.823Z,41.90
2023-01-18T11:55:56.075Z,49.00
2023-01-18T11:58:29.397Z,39.60
2023-01-18T12:00:57.352Z,41.90
2023-01-18T12:03:35.408Z,38.60
2023-01-18T12:06:11.063Z,76.50
2023-01-18T12:08:55.042Z,45.30
2023-01-18T12:12:09.837Z,49.20
2023-01-18T12:14:51.610Z,48.80
2023-01-18T12:17:38.293Z,46.80
2023-01-18T12:20:29.367Z,60.10
2023-01-18T12:23:19.038Z,65.10
2023-01-18T12:26:10.933Z,74.70
2023-01-18T12:28:51.795Z,61.30
2023-01-18T12:31:43.871Z,48.70
2023-01-18T12:34:22.395Z,42.60
2023-01-18T12:37:31.453Z,46.20
2023-01-18T12:40:28.699Z,42.50
2023-01-18T12:43:43.279Z,50.80
2023-01-18T12:46:26.534Z,53.20
2023-01-18T12:49:18.947Z,56.30
2023-01-18T12:52:03.131Z,59.50
2023-01-18T12:54:48.948Z,52.10
2023-01-18T12:57:18.470Z,45.50
2023-01-18T13:00:19.020Z,44.30
2023-01-18T13:02:51.893Z,39.10
2023-01-18T13:05:52.638Z,33.20
2023-01-18T13:08:53.476Z,36.80
2023-01-18T13:11:31.011Z,35.90
2023-01-18T13:14:21.673Z,36.60
2023-01-18T13:17:17.117Z,36.10
2023-01-18T13:19:54.727Z,41.70
2023-01-18T13:23:00.001Z,46.20
2023-01-18T13:25:52.860Z,38.30
2023-01-18T13:28:24.017Z,39.40
2023-01-18T13:31:00.713Z,45.90
2023-01-18T13:33:32.830Z,43.80
2023-01-18T13:36:14.399Z,41.90
2023-01-18T13:38:56.252Z,46.50
2023-01-18T13:41:29.871Z,43.00
2023-01-18T13:43:57.787Z,44.30
2023-01-18T13:46:26.623Z,42.60
2023-01-18T13:49:36.177Z,43.80
2023-01-18T13:52:35.787Z,42.60
2023-01-18T13:55:03.867Z,46.00
2023-01-18T13:57:34.403Z,50.30
2023-01-18T14:00:04.234Z,51.80
2023-01-18T14:02:42.514Z,45.20
2023-01-18T14:05:25.650Z,59.30
2023-01-18T14:08:01.057Z,200.90
2023-01-18T14:10:33.344Z,53.00
2023-01-18T14:13:05.069Z,57.00
2023-01-18T14:15:42.070Z,57.50
2023-01-18T14:18:24.946Z,45.60
2023-01-18T14:21:21.183Z,46.00
2023-01-18T14:23:58.046Z,81.10
2023-01-18T14:26:31.021Z,70.80
2023-01-18T14:29:14.282Z,125.80
2023-01-18T14:31:53.569Z,101.10
2023-01-18T14:34:30.786Z,100.50
2023-01-18T14:36:59.268Z,74.00
2023-01-18T14:39:30.121Z,105.30
2023-01-18T14:42:02.146Z,105.50
2023-01-18T14:44:58.642Z,75.60
2023-01-18T14:47:32.193Z,66.30
2023-01-18T14:50:04.315Z,94.50
2023-01-18T14:52:34.587Z,345.40
2023-01-18T14:55:02.735Z,211.90
2023-01-18T14:57:30.747Z,335.20
2023-01-18T15:00:16.572Z,123.90
2023-01-18T15:02:44.592Z,127.90
2023-01-18T15:05:14.587Z,223.20
2023-01-18T15:07:56.019Z,157.40
2023-01-18T15:10:24.979Z,141.30
2023-01-18T15:12:57.983Z,130.10
2023-01-18T15:15:31.094Z,109.20
2023-01-18T15:18:18.918Z,131.40
2023-01-18T15:21:03.380Z,107.60
2023-01-18T15:23:36.441Z,91.20
2023-01-18T15:26:04.707Z,121.90
2023-01-18T15:28:36.744Z,138.30
2023-01-18T15:31:22.845Z,295.10
2023-01-18T15:33:50.930Z,308.60
2023-01-18T15:36:19.677Z,259.00
2023-01-18T15:38:47.707Z,125.70
2023-01-18T15:41:15.775Z,478.50
2023-01-18T15:43:46.204Z,252.00
2023-01-18T15:46:17.123Z,100.20
2023-01-18T15:48:49.884Z,81.80
2023-01-18T15:51:22.590Z,177.40
2023-01-18T15:53:56.606Z,142.00
2023-01-18T15:56:32.762Z,99.20
2023-01-18T15:59:06.594Z,87.20
2023-01-18T16:01:34.581Z,87.60
2023-01-18T16:04:19.085Z,122.70
2023-01-18T16:06:47.083Z,102.30
2023-01-18T16:09:16.146Z,91.60
2023-01-18T16:11:52.793Z,85.00
2023-01-18T16:14:31.401Z,126.90
2023-01-18T16:17:10.227Z,108.20
2023-01-18T16:19:48.469Z,287.80
2023-01-18T16:22:23.964Z,138.70
2023-01-18T16:24:56.246Z,100.30
2023-01-18T16:27:26.411Z,106.50
2023-01-18T16:30:00.049Z,121.70
2023-01-18T16:32:34.533Z,178.60
2023-01-18T16:35:13.137Z,193.70
2023-01-18T16:37:44.473Z,333.50
2023-01-18T16:40:21.304Z,266.50
2023-01-18T16:42:57.202Z,231.60
2023-01-18T16:45:26.104Z,216.10
2023-01-18T16:47:53.911Z,167.40
2023-01-18T16:50:22.206Z,123.90
2023-01-18T16:52:50.304Z,100.40
2023-01-18T16:55:18.648Z,104.40
2023-01-18T16:57:46.785Z,92.80
2023-01-18T17:00:20.875Z,91.20
2023-01-18T17:02:49.772Z,94.90
2023-01-18T17:05:18.688Z,294.10
2023-01-18T17:07:46.850Z,527.50
2023-01-18T17:10:20.187Z,304.10
2023-01-18T17:12:48.049Z,182.10
2023-01-18T17:15:16.652Z,282.80
2023-01-18T17:17:45.831Z,392.20
2023-01-18T17:20:19.904Z,249.20
2023-01-18T17:22:47.892Z,229.70
2023-01-18T17:25:15.750Z,205.50
2023-01-18T17:27:44.576Z,137.10
2023-01-18T17:30:16.160Z,152.00
2023-01-18T17:32:45.909Z,279.70
2023-01-18T17:35:16.627Z,250.30
2023-01-18T17:37:44.497Z,194.40
2023-01-18T17:40:22.798Z,459.50
2023-01-18T17:42:53.299Z,154.10
2023-01-18T17:45:21.204Z,160.30
2023-01-18T17:47:52.267Z,276.30
2023-01-18T17:50:24.941Z,269.20
2023-01-18T17:52:54.628Z,334.90
2023-01-18T17:55:27.464Z,375.40
2023-01-18T17:57:58.854Z,453.40
2023-01-18T18:00:26.939Z,455.30
2023-01-18T18:02:57.363Z,277.90
2023-01-18T18:05:25.657Z,149.70
2023-01-18T18:07:53.624Z,212.10
2023-01-18T18:10:21.745Z,170.00
2023-01-18T18:12:49.551Z,133.10
2023-01-18T18:15:17.676Z,105.70
2023-01-18T18:17:45.547Z,118.40
2023-01-18T18:20:14.190Z,150.40
2023-01-18T18:22:41.968Z,285.50
2023-01-18T18:25:10.051Z,193.90
2023-01-18T18:27:45.320Z,141.60
2023-01-18T18:30:15.633Z,163.80
2023-01-18T18:32:43.569Z,150.30
2023-01-18T18:35:24.315Z,129.90
2023-01-18T18:37:54.175Z,128.50
2023-01-18T18:40:23.593Z,286.00
2023-01-18T18:43:07.459Z,287.80
2023-01-18T18:45:35.805Z,154.90
2023-01-18T18:48:04.482Z,109.70
2023-01-18T18:50:32.671Z,94.60
2023-01-18T18:53:00.929Z,119.80
2023-01-18T18:55:29.192Z,140.70
2023-01-18T18:57:57.057Z,150.20
2023-01-18T19:00:25.412Z,168.80
2023-01-18T19:03:01.128Z,161.70
2023-01-18T19:05:30.928Z,162.20
2023-01-18T19:07:59.775Z,181.00
2023-01-18T19:10:30.494Z,171.30
2023-01-18T19:12:59.688Z,174.30
2023-01-18T19:15:27.972Z,172.00
2023-01-18T19:17:57.989Z,169.30
2023-01-18T19:20:25.980Z,120.00
2023-01-18T19:22:54.138Z,104.40
2023-01-18T19:25:22.005Z,101.30
2023-01-18T19:27:49.821Z,170.00
2023-01-18T19:30:20.800Z,112.40
2023-01-18T19:32:50.979Z,99.00
2023-01-18T19:35:20.580Z,88.40
2023-01-18T19:37:49.736Z,282.80
2023-01-18T19:40:17.811Z,162.60
2023-01-18T19:42:56.059Z,152.00
2023-01-18T19:45:28.251Z,160.60
2023-01-18T19:47:59.803Z,200.50
2023-01-18T19:50:29.848Z,247.60
2023-01-18T19:52:58.288Z,233.20
2023-01-18T19:55:26.654Z,198.60
2023-01-18T19:57:56.347Z,236.10
2023-01-18T20:00:24.166Z,465.00
2023-01-18T20:02:52.045Z,487.00
2023-01-18T20:05:20.573Z,336.50
2023-01-18T20:07:48.663Z,201.70
2023-01-18T20:10:20.279Z,243.30
2023-01-18T20:12:49.316Z,209.60
2023-01-18T20:15:18.669Z,224.40
2023-01-18T20:17:46.621Z,217.40
2023-01-18T20:20:24.310Z,225.70
2023-01-18T20:23:03.434Z,174.00
2023-01-18T20:25:33.102Z,257.90
2023-01-18T20:28:01.422Z,212.10
2023-01-18T20:30:29.401Z,170.40
2023-01-18T20:32:57.855Z,152.00
2023-01-18T20:35:27.576Z,143.40
2023-01-18T20:37:56.438Z,167.70
2023-01-18T20:40:24.729Z,460.80
2023-01-18T20:42:52.871Z,388.80
2023-01-18T20:45:20.931Z,423.30
2023-01-18T20:47:48.989Z,302.70
2023-01-18T20:50:17.887Z,261.90
2023-01-18T20:52:45.915Z,199.80
2023-01-18T20:55:14.863Z,407.70
2023-01-18T20:57:43.081Z,491.10
2023-01-18T21:00:12.865Z,414.80
2023-01-18T21:02:42.153Z,366.10
2023-01-18T21:05:10.660Z,202.00
2023-01-18T21:07:40.203Z,169.20
2023-01-18T21:10:10.921Z,171.80
2023-01-18T21:12:38.938Z,141.20
2023-01-18T21:15:09.200Z,138.60
2023-01-18T21:17:37.072Z,132.80
2023-01-18T21:20:05.454Z,139.40
2023-01-18T21:22:33.486Z,142.10
2023-01-18T21:25:01.538Z,129.60
2023-01-18T21:27:33.232Z,125.50
2023-01-18T21:30:01.196Z,130.50
2023-01-18T21:32:29.313Z,151.20
2023-01-18T21:34:57.279Z,153.20
2023-01-18T21:37:25.134Z,131.20
2023-01-18T21:39:53.284Z,128.20
2023-01-18T21:42:40.106Z,127.60
2023-01-18T21:45:29.108Z,158.90
2023-01-18T21:47:58.621Z,136.20
2023-01-18T21:50:45.473Z,133.50
2023-01-18T21:53:34.944Z,126.00
2023-01-18T21:56:03.716Z,125.20
2023-01-18T21:58:50.122Z,122.20
2023-01-18T22:01:23.866Z,134.70
2023-01-18T22:04:11.841Z,135.00
2023-01-18T22:06:39.942Z,153.40
2023-01-18T22:09:08.325Z,185.90
2023-01-18T22:11:36.296Z,156.60
2023-01-18T22:14:05.678Z,198.30
2023-01-18T22:16:34.061Z,198.80
2023-01-18T22:19:04.877Z,198.30
2023-01-18T22:21:33.681Z,204.50
2023-01-18T22:24:01.954Z,226.00
2023-01-18T22:26:30.487Z,265.60
2023-01-18T22:28:58.541Z,301.50
2023-01-18T22:31:27.842Z,275.40
2023-01-18T22:33:57.404Z,284.30
2023-01-18T22:36:25.412Z,224.20
2023-01-18T22:38:54.092Z,177.00
2023-01-18T22:41:25.259Z,149.30
2023-01-18T22:43:54.644Z,132.50
2023-01-18T22:46:24.001Z,128.00
2023-01-18T22:48:52.867Z,136.90
2023-01-18T22:51:23.422Z,213.70
2023-01-18T22:53:52.039Z,148.70
2023-01-18T22:56:22.358Z,121.30
2023-01-18T22:58:50.972Z,131.30
2023-01-18T23:01:30.954Z,109.70
2023-01-18T23:04:01.552Z,95.80
2023-01-18T23:06:41.948Z,97.10
2023-01-18T23:09:10.473Z,105.60
2023-01-18T23:11:39.095Z,101.00
2023-01-18T23:14:26.131Z,97.60
2023-01-18T23:17:12.866Z,94.50
2023-01-18T23:19:40.963Z,90.50
2023-01-18T23:22:08.935Z,81.20
2023-01-18T23:24:37.745Z,80.60
2023-01-18T23:27:07.725Z,78.90
2023-01-18T23:29:35.724Z,81.80
2023-01-18T23:32:03.971Z,73.00
2023-01-18T23:34:32.169Z,71.50
2023-01-18T23:37:00.145Z,75.00
2023-01-18T23:39:46.480Z,78.80
2023-01-18T23:42:33.337Z,67.90
2023-01-18T23:45:19.891Z,76.20
2023-01-18T23:48:06.222Z,78.60
2023-01-18T23:50:52.909Z,75.00
2023-01-18T23:53:39.371Z,72.30
2023-01-18T23:56:07.527Z,73.10
2023-01-18T23:58:35.503Z,78.00
